createdAt,value
2023-04-30T00:02:20.253Z,100.00
2023-04-30T00:04:47.456Z,100.00
2023-04-30T00:07:14.662Z,100.00
2023-04-30T00:09:41.620Z,100.00
2023-04-30T00:12:08.649Z,100.00
2023-04-30T00:14:36.583Z,100.00
2023-04-30T00:17:03.675Z,100.00
2023-04-30T00:19:30.702Z,100.00
2023-04-30T00:21:57.505Z,100.00
2023-04-30T00:24:24.495Z,100.00
2023-04-30T00:26:51.298Z,100.00
2023-04-30T00:29:18.174Z,100.00
2023-04-30T00:31:45.082Z,100.00
2023-04-30T00:34:12.069Z,100.00
2023-04-30T00:36:46.228Z,100.00
2023-04-30T00:39:13.340Z,100.00
2023-04-30T00:41:41.491Z,100.00
2023-04-30T00:44:08.628Z,100.00
2023-04-30T00:46:35.839Z,100.00
2023-04-30T00:49:05.233Z,100.00
2023-04-30T00:51:33.476Z,100.00
2023-04-30T00:54:03.670Z,100.00
2023-04-30T00:56:31.924Z,100.00
2023-04-30T00:58:59.768Z,100.00
2023-04-30T01:01:29.173Z,100.00
2023-04-30T01:03:56.466Z,100.00
2023-04-30T01:06:25.706Z,100.00
2023-04-30T01:08:53.454Z,100.00
2023-04-30T01:11:38.548Z,100.00
2023-04-30T01:14:37.128Z,100.00
2023-04-30T01:17:06.624Z,100.00
2023-04-30T01:19:44.575Z,100.00
2023-04-30T01:22:27.198Z,100.00
2023-04-30T01:24:54.805Z,100.00
2023-04-30T01:27:43.459Z,100.00
2023-04-30T01:30:12.029Z,100.00
2023-04-30T01:32:38.931Z,100.00
2023-04-30T01:35:06.224Z,100.00
2023-04-30T01:38:00.239Z,100.00
2023-04-30T01:40:50.015Z,100.00
2023-04-30T01:43:35.785Z,100.00
2023-04-30T01:46:17.836Z,100.00
2023-04-30T01:49:09.317Z,100.00
2023-04-30T01:51:41.350Z,100.00
2023-04-30T01:54:27.855Z,100.00
2023-04-30T01:57:05.014Z,100.00
2023-04-30T01:59:38.538Z,100.00
2023-04-30T02:02:06.871Z,100.00
2023-04-30T02:04:33.972Z,100.00
2023-04-30T02:07:01.243Z,100.00
2023-04-30T02:09:28.111Z,100.00
2023-04-30T02:11:54.892Z,100.00
2023-04-30T02:14:21.880Z,100.00
2023-04-30T02:16:52.514Z,100.00
2023-04-30T02:19:19.415Z,100.00
2023-04-30T02:21:46.559Z,100.00
2023-04-30T02:24:13.431Z,100.00
2023-04-30T02:26:40.380Z,100.00
2023-04-30T02:29:07.284Z,100.00
2023-04-30T02:31:34.113Z,100.00
2023-04-30T02:34:01.096Z,100.00
2023-04-30T02:36:27.868Z,100.00
2023-04-30T02:38:54.771Z,100.00
2023-04-30T02:41:21.840Z,100.00
2023-04-30T02:43:48.876Z,100.00
2023-04-30T02:46:15.788Z,100.00
2023-04-30T02:48:42.774Z,100.00
2023-04-30T02:51:10.004Z,100.00
2023-04-30T02:53:36.822Z,100.00
2023-04-30T02:56:03.910Z,100.00
2023-04-30T02:58:30.849Z,100.00
2023-04-30T03:00:57.698Z,100.00
2023-04-30T03:03:24.696Z,100.00
2023-04-30T03:05:51.707Z,100.00
2023-04-30T03:08:18.642Z,100.00
2023-04-30T03:10:45.604Z,100.00
2023-04-30T03:13:12.624Z,100.00
2023-04-30T03:15:39.437Z,100.00
2023-04-30T03:18:06.321Z,100.00
2023-04-30T03:20:33.244Z,100.00
2023-04-30T03:23:00.417Z,100.00
2023-04-30T03:25:27.366Z,100.00
2023-04-30T03:27:54.407Z,100.00
2023-04-30T03:30:21.454Z,100.00
2023-04-30T03:32:48.621Z,100.00
2023-04-30T03:35:16.539Z,100.00
2023-04-30T03:37:43.503Z,100.00
2023-04-30T03:40:11.696Z,100.00
2023-04-30T03:42:38.995Z,100.00
2023-04-30T03:45:06.403Z,100.00
2023-04-30T03:47:33.888Z,100.00
2023-04-30T03:50:01.282Z,100.00
2023-04-30T03:52:28.375Z,100.00
2023-04-30T03:54:55.413Z,100.00
2023-04-30T03:57:22.677Z,100.00
2023-04-30T03:59:50.760Z,100.00
2023-04-30T04:02:18.004Z,100.00
2023-04-30T04:04:44.907Z,100.00
2023-04-30T04:07:12.281Z,100.00
2023-04-30T04:09:39.240Z,100.00
2023-04-30T04:12:06.915Z,100.00
2023-04-30T04:14:34.582Z,100.00
2023-04-30T04:17:05.734Z,100.00
2023-04-30T04:19:32.976Z,100.00
2023-04-30T04:22:00.961Z,100.00
2023-04-30T04:24:27.946Z,100.00
2023-04-30T04:26:54.874Z,100.00
2023-04-30T04:29:21.866Z,100.00
2023-04-30T04:31:52.265Z,100.00
2023-04-30T04:34:20.346Z,100.00
2023-04-30T04:36:47.594Z,100.00
2023-04-30T04:39:15.182Z,100.00
2023-04-30T04:41:42.636Z,100.00
2023-04-30T04:44:09.827Z,100.00
2023-04-30T04:46:40.092Z,100.00
2023-04-30T04:49:07.043Z,100.00
2023-04-30T04:51:35.424Z,100.00
2023-04-30T04:54:02.464Z,100.00
2023-04-30T04:56:29.265Z,100.00
2023-04-30T04:58:56.940Z,100.00
2023-04-30T05:01:24.065Z,100.00
2023-04-30T05:03:51.389Z,100.00
2023-04-30T05:06:19.699Z,100.00
2023-04-30T05:08:46.808Z,100.00
2023-04-30T05:11:15.533Z,100.00
2023-04-30T05:13:42.906Z,100.00
2023-04-30T05:16:09.930Z,99.42
2023-04-30T05:18:36.890Z,98.69
2023-04-30T05:21:04.466Z,97.13
2023-04-30T05:23:31.414Z,94.46
2023-04-30T05:25:58.308Z,92.36
2023-04-30T05:28:25.394Z,91.74
2023-04-30T05:30:52.181Z,91.49
2023-04-30T05:33:19.313Z,92.22
2023-04-30T05:35:46.158Z,92.81
2023-04-30T05:38:13.132Z,91.92
2023-04-30T05:40:40.867Z,92.36
2023-04-30T05:43:07.759Z,92.22
2023-04-30T05:45:35.039Z,91.59
2023-04-30T05:48:02.234Z,91.75
2023-04-30T05:50:29.320Z,91.52
2023-04-30T05:52:56.049Z,90.67
2023-04-30T05:55:23.108Z,90.36
2023-04-30T05:57:50.013Z,89.61
2023-04-30T06:00:17.078Z,89.41
2023-04-30T06:02:44.098Z,88.96
2023-04-30T06:05:12.402Z,88.00
2023-04-30T06:07:40.854Z,87.19
2023-04-30T06:10:09.441Z,87.37
2023-04-30T06:12:36.566Z,87.17
2023-04-30T06:15:03.935Z,85.55
2023-04-30T06:17:30.825Z,84.15
2023-04-30T06:20:01.051Z,83.56
2023-04-30T06:22:28.256Z,83.02
2023-04-30T06:24:55.332Z,82.58
2023-04-30T06:27:22.253Z,82.19
2023-04-30T06:29:49.202Z,81.27
2023-04-30T06:32:16.692Z,80.31
2023-04-30T06:34:43.699Z,79.63
2023-04-30T06:37:10.527Z,78.71
2023-04-30T06:39:37.755Z,79.79
2023-04-30T06:42:04.595Z,80.00
2023-04-30T06:44:31.850Z,77.08
2023-04-30T06:46:58.813Z,76.40
2023-04-30T06:49:25.996Z,76.86
2023-04-30T06:51:56.401Z,76.84
2023-04-30T06:54:23.507Z,75.76
2023-04-30T06:56:50.520Z,74.83
2023-04-30T06:59:26.193Z,74.40
2023-04-30T07:01:53.662Z,73.76
2023-04-30T07:04:36.597Z,73.78
2023-04-30T07:07:03.480Z,73.11
2023-04-30T07:09:30.859Z,73.10
2023-04-30T07:11:59.271Z,73.18
2023-04-30T07:14:26.220Z,72.54
2023-04-30T07:16:53.517Z,72.18
2023-04-30T07:19:20.699Z,71.18
2023-04-30T07:21:47.589Z,69.64
2023-04-30T07:24:14.495Z,67.85
2023-04-30T07:26:42.484Z,65.36
2023-04-30T07:29:09.937Z,63.57
2023-04-30T07:31:37.149Z,61.24
2023-04-30T07:34:03.951Z,57.91
2023-04-30T07:36:31.061Z,57.21
2023-04-30T07:38:57.951Z,57.88
2023-04-30T07:41:25.814Z,59.97
2023-04-30T07:43:52.833Z,59.88
2023-04-30T07:46:19.921Z,60.15
2023-04-30T07:48:46.769Z,60.10
2023-04-30T07:51:13.808Z,57.95
2023-04-30T07:53:40.778Z,57.69
2023-04-30T07:56:08.336Z,57.04
2023-04-30T07:58:35.456Z,56.08
2023-04-30T08:01:02.383Z,56.07
2023-04-30T08:03:29.444Z,54.81
2023-04-30T08:05:56.411Z,53.88
2023-04-30T08:08:24.722Z,54.52
2023-04-30T08:10:52.597Z,54.34
2023-04-30T08:13:23.385Z,53.79
2023-04-30T08:15:50.334Z,53.52
2023-04-30T08:18:17.496Z,52.78
2023-04-30T08:20:44.656Z,54.13
2023-04-30T08:23:11.564Z,53.38
2023-04-30T08:25:38.434Z,54.15
2023-04-30T08:28:07.059Z,54.04
2023-04-30T08:30:33.948Z,52.96
2023-04-30T08:33:00.923Z,50.69
2023-04-30T08:35:29.902Z,50.59
2023-04-30T08:37:57.534Z,50.93
2023-04-30T08:40:43.855Z,52.27
2023-04-30T08:43:14.471Z,52.78
2023-04-30T08:45:41.930Z,53.45
2023-04-30T08:48:15.779Z,53.71
2023-04-30T08:50:42.742Z,53.13
2023-04-30T08:53:11.560Z,53.06
2023-04-30T08:55:40.622Z,52.52
2023-04-30T08:58:10.382Z,54.61
2023-04-30T09:00:39.620Z,53.67
2023-04-30T09:03:08.432Z,51.65
2023-04-30T09:05:37.408Z,51.11
2023-04-30T09:08:04.680Z,53.13
2023-04-30T09:10:35.717Z,52.49
2023-04-30T09:13:10.283Z,52.62
2023-04-30T09:15:39.057Z,53.03
2023-04-30T09:18:18.235Z,51.15
2023-04-30T09:21:03.056Z,51.28
2023-04-30T09:23:30.811Z,51.21
2023-04-30T09:25:58.179Z,53.04
2023-04-30T09:28:26.772Z,50.91
2023-04-30T09:30:53.947Z,51.14
2023-04-30T09:33:21.029Z,52.11
2023-04-30T09:35:56.793Z,53.14
2023-04-30T09:38:32.447Z,50.10
2023-04-30T09:41:01.220Z,51.18
2023-04-30T09:43:29.364Z,50.06
2023-04-30T09:45:58.904Z,50.95
2023-04-30T09:48:31.627Z,49.42
2023-04-30T09:50:58.667Z,49.81
2023-04-30T09:53:25.784Z,50.28
2023-04-30T09:55:52.809Z,49.44
2023-04-30T09:58:20.123Z,48.43
2023-04-30T10:00:56.607Z,48.97
2023-04-30T10:03:24.226Z,46.49
2023-04-30T10:05:53.183Z,47.57
2023-04-30T10:08:34.183Z,47.39
2023-04-30T10:11:07.223Z,48.55
2023-04-30T10:13:51.780Z,47.51
2023-04-30T10:16:43.746Z,48.11
2023-04-30T10:19:19.812Z,50.40
2023-04-30T10:21:47.445Z,51.52
2023-04-30T10:24:15.941Z,50.33
2023-04-30T10:26:44.318Z,48.94
2023-04-30T10:29:13.344Z,51.24
2023-04-30T10:31:41.843Z,49.75
2023-04-30T10:34:33.688Z,49.26
2023-04-30T10:37:07.696Z,50.48
2023-04-30T10:39:41.752Z,50.44
2023-04-30T10:42:11.053Z,50.64
2023-04-30T10:44:50.804Z,49.45
2023-04-30T10:47:19.307Z,49.42
2023-04-30T10:49:48.375Z,48.76
2023-04-30T10:52:27.745Z,50.68
2023-04-30T10:54:58.030Z,49.56
2023-04-30T10:57:29.749Z,48.77
2023-04-30T11:00:08.643Z,49.80
2023-04-30T11:02:44.204Z,49.80
2023-04-30T11:05:12.746Z,50.72
2023-04-30T11:07:50.014Z,49.07
2023-04-30T11:10:21.196Z,48.89
2023-04-30T11:12:49.922Z,46.03
2023-04-30T11:15:20.343Z,45.96
2023-04-30T11:17:49.612Z,46.14
2023-04-30T11:20:21.850Z,48.10
2023-04-30T11:22:49.023Z,47.18
2023-04-30T11:25:20.050Z,48.03
2023-04-30T11:27:46.990Z,47.90
2023-04-30T11:30:18.690Z,48.42
2023-04-30T11:32:47.961Z,48.69
2023-04-30T11:35:19.237Z,49.09
2023-04-30T11:37:48.319Z,50.44
2023-04-30T11:40:15.721Z,50.04
2023-04-30T11:42:45.780Z,49.16
2023-04-30T11:45:17.819Z,50.44
2023-04-30T11:47:52.740Z,48.40
2023-04-30T11:50:27.449Z,48.70
2023-04-30T11:56:31.326Z,47.64
2023-04-30T11:58:58.829Z,46.46
2023-04-30T12:01:28.113Z,49.73
2023-04-30T12:03:57.547Z,47.84
2023-04-30T12:06:29.256Z,47.21
2023-04-30T12:08:57.387Z,48.29
2023-04-30T12:11:29.227Z,48.96
2023-04-30T12:14:00.845Z,48.54
2023-04-30T12:16:28.995Z,48.76
2023-04-30T12:18:56.212Z,49.13
2023-04-30T12:21:23.668Z,46.87
2023-04-30T12:23:50.861Z,47.86
2023-04-30T12:26:17.966Z,47.90
2023-04-30T12:28:48.209Z,48.64
2023-04-30T12:31:17.792Z,46.61
2023-04-30T12:33:44.822Z,47.59
2023-04-30T12:36:12.051Z,45.90
2023-04-30T12:38:44.171Z,46.04
2023-04-30T12:41:15.406Z,45.85
2023-04-30T12:43:42.562Z,45.63
2023-04-30T12:46:09.505Z,48.92
2023-04-30T12:48:45.807Z,46.81
2023-04-30T12:51:12.708Z,47.52
2023-04-30T12:53:46.518Z,49.09
2023-04-30T12:56:16.615Z,48.38
2023-04-30T12:58:50.199Z,47.74
2023-04-30T13:01:19.563Z,46.47
2023-04-30T13:03:46.598Z,46.94
2023-04-30T13:06:13.968Z,46.69
2023-04-30T13:08:50.249Z,46.45
2023-04-30T13:11:26.288Z,46.04
2023-04-30T13:13:55.627Z,46.66
2023-04-30T13:16:24.622Z,46.51
2023-04-30T13:18:52.114Z,43.87
2023-04-30T13:21:19.049Z,44.94
2023-04-30T13:23:52.821Z,45.05
2023-04-30T13:26:21.925Z,45.40
2023-04-30T13:28:48.916Z,44.56
2023-04-30T13:31:15.918Z,44.35
2023-04-30T13:33:42.853Z,44.21
2023-04-30T13:36:09.796Z,45.27
2023-04-30T13:38:36.920Z,44.71
2023-04-30T13:41:03.799Z,45.75
2023-04-30T13:43:31.382Z,44.59
2023-04-30T13:45:58.954Z,46.07
2023-04-30T13:48:25.910Z,45.36
2023-04-30T13:50:52.916Z,46.68
2023-04-30T13:53:19.771Z,46.46
2023-04-30T13:55:46.783Z,45.65
2023-04-30T13:58:13.889Z,44.71
2023-04-30T14:00:41.304Z,44.20
2023-04-30T14:03:08.685Z,43.27
2023-04-30T14:05:36.357Z,43.49
2023-04-30T14:08:04.512Z,43.90
2023-04-30T14:10:32.264Z,43.74
2023-04-30T14:12:59.285Z,44.17
2023-04-30T14:15:26.206Z,44.76
2023-04-30T14:17:53.473Z,45.01
2023-04-30T14:20:20.538Z,45.16
2023-04-30T14:22:47.771Z,44.47
2023-04-30T14:25:14.703Z,44.45
2023-04-30T14:27:41.957Z,44.46
2023-04-30T14:30:09.418Z,44.65
2023-04-30T14:32:37.683Z,43.61
2023-04-30T14:35:05.541Z,43.80
2023-04-30T14:37:32.358Z,44.00
2023-04-30T14:40:00.668Z,44.36
2023-04-30T14:42:27.751Z,43.90
2023-04-30T14:44:54.594Z,44.20
2023-04-30T14:47:22.759Z,45.00
2023-04-30T14:49:52.177Z,44.87
2023-04-30T14:52:20.057Z,44.40
2023-04-30T14:54:47.249Z,44.24
2023-04-30T14:57:15.070Z,45.72
2023-04-30T14:59:42.058Z,47.48
2023-04-30T15:02:09.430Z,46.97
2023-04-30T15:04:36.398Z,47.17
2023-04-30T15:07:04.354Z,46.42
2023-04-30T15:09:31.498Z,45.34
2023-04-30T15:11:58.376Z,45.34
2023-04-30T15:14:25.309Z,46.13
2023-04-30T15:16:52.222Z,46.26
2023-04-30T15:19:19.061Z,45.65
2023-04-30T15:21:48.366Z,47.19
2023-04-30T15:24:16.270Z,46.26
2023-04-30T15:26:43.120Z,46.96
2023-04-30T15:29:10.684Z,46.87
2023-04-30T15:31:37.928Z,47.05
2023-04-30T15:34:04.957Z,46.42
2023-04-30T15:36:32.448Z,46.26
2023-04-30T15:38:59.648Z,46.83
2023-04-30T15:41:26.482Z,46.23
2023-04-30T15:43:53.530Z,46.23
2023-04-30T15:46:20.575Z,45.42
2023-04-30T15:48:47.589Z,46.13
2023-04-30T15:51:14.616Z,45.65
2023-04-30T15:53:41.539Z,45.58
2023-04-30T15:56:09.734Z,45.19
2023-04-30T15:58:36.799Z,46.26
2023-04-30T16:01:03.797Z,44.21
2023-04-30T16:03:31.649Z,42.97
2023-04-30T16:06:00.969Z,41.86
2023-04-30T16:08:28.532Z,41.89
2023-04-30T16:10:55.797Z,41.05
2023-04-30T16:13:22.695Z,40.71
2023-04-30T16:15:49.706Z,40.04
2023-04-30T16:18:16.923Z,40.29
2023-04-30T16:20:47.421Z,40.10
2023-04-30T16:23:14.688Z,39.69
2023-04-30T16:25:42.078Z,39.95
2023-04-30T16:28:09.003Z,40.34
2023-04-30T16:30:36.132Z,41.29
2023-04-30T16:33:03.200Z,42.47
2023-04-30T16:35:30.105Z,43.35
2023-04-30T16:37:57.196Z,43.77
2023-04-30T16:40:24.135Z,44.62
2023-04-30T16:42:51.020Z,44.94
2023-04-30T16:45:18.145Z,45.57
2023-04-30T16:47:45.605Z,45.80
2023-04-30T16:50:12.697Z,46.23
2023-04-30T16:52:39.703Z,46.74
2023-04-30T16:55:07.338Z,47.38
2023-04-30T16:57:34.412Z,48.13
2023-04-30T17:00:01.219Z,48.53
2023-04-30T17:02:28.262Z,48.85
2023-04-30T17:04:55.273Z,49.42
2023-04-30T17:07:22.206Z,50.15
2023-04-30T17:09:49.166Z,50.97
2023-04-30T17:12:15.957Z,51.99
2023-04-30T17:14:43.130Z,52.14
2023-04-30T17:17:10.006Z,52.35
2023-04-30T17:19:36.923Z,53.63
2023-04-30T17:22:03.943Z,55.34
2023-04-30T17:24:30.771Z,56.84
2023-04-30T17:26:59.510Z,58.03
2023-04-30T17:29:26.643Z,59.31
2023-04-30T17:31:53.617Z,60.20
2023-04-30T17:34:20.919Z,61.42
2023-04-30T17:36:50.079Z,62.89
2023-04-30T17:39:18.822Z,63.07
2023-04-30T17:41:45.961Z,64.27
2023-04-30T17:44:12.797Z,64.67
2023-04-30T17:46:40.340Z,65.23
2023-04-30T17:49:08.296Z,66.28
2023-04-30T17:51:35.609Z,66.87
2023-04-30T17:54:02.732Z,67.85
2023-04-30T17:56:31.401Z,68.70
2023-04-30T17:58:58.937Z,69.61
2023-04-30T18:01:49.215Z,71.28
2023-04-30T18:05:08.642Z,72.57
2023-04-30T18:08:00.506Z,73.31
2023-04-30T18:10:50.566Z,74.62
2023-04-30T18:13:17.407Z,75.46
2023-04-30T18:15:45.082Z,76.04
2023-04-30T18:18:12.019Z,76.35
2023-04-30T18:20:38.880Z,76.95
2023-04-30T18:23:08.522Z,77.00
2023-04-30T18:25:37.328Z,78.13
2023-04-30T18:28:04.381Z,78.46
2023-04-30T18:30:31.666Z,79.01
2023-04-30T18:32:59.052Z,79.15
2023-04-30T18:35:28.563Z,79.21
2023-04-30T18:38:46.149Z,80.98
2023-04-30T18:41:13.036Z,81.94
2023-04-30T18:43:42.582Z,82.79
2023-04-30T18:46:10.032Z,83.26
2023-04-30T18:48:37.052Z,83.96
2023-04-30T18:51:04.600Z,84.49
2023-04-30T18:53:31.668Z,84.24
2023-04-30T18:55:58.494Z,84.74
2023-04-30T18:58:25.463Z,85.09
2023-04-30T19:00:52.748Z,84.94
2023-04-30T19:03:20.076Z,85.17
2023-04-30T19:05:46.901Z,85.94
2023-04-30T19:08:13.890Z,86.31
2023-04-30T19:10:40.803Z,86.51
2023-04-30T19:13:07.898Z,86.48
2023-04-30T19:15:35.763Z,86.54
2023-04-30T19:18:25.159Z,87.31
2023-04-30T19:21:01.169Z,87.97
2023-04-30T19:23:32.520Z,89.19
2023-04-30T19:25:59.685Z,89.77
2023-04-30T19:28:26.867Z,89.51
2023-04-30T19:30:55.610Z,89.52
2023-04-30T19:36:29.725Z,90.44
2023-04-30T19:38:56.752Z,90.50
2023-04-30T19:41:23.600Z,91.26
2023-04-30T19:43:52.399Z,91.84
2023-04-30T19:46:19.798Z,92.37
2023-04-30T19:48:46.850Z,92.17
2023-04-30T19:51:13.775Z,91.99
2023-04-30T19:53:40.684Z,92.25
2023-04-30T19:56:08.595Z,92.36
2023-04-30T19:58:35.829Z,92.12
2023-04-30T20:01:17.816Z,92.49
2023-04-30T20:03:45.139Z,94.19
2023-04-30T20:06:12.350Z,95.16
2023-04-30T20:08:39.327Z,95.04
2023-04-30T20:11:06.475Z,95.16
2023-04-30T20:13:33.576Z,95.03
2023-04-30T20:16:01.301Z,95.95
2023-04-30T20:18:28.339Z,96.68
2023-04-30T20:21:06.505Z,96.93
2023-04-30T20:23:33.502Z,97.10
2023-04-30T20:26:00.891Z,97.96
2023-04-30T20:28:28.119Z,98.39
2023-04-30T20:30:55.830Z,98.92
2023-04-30T20:33:59.519Z,99.52
2023-04-30T20:36:52.589Z,99.41
2023-04-30T20:39:24.951Z,99.05
2023-04-30T20:41:52.226Z,99.51
2023-04-30T20:44:19.028Z,99.79
2023-04-30T20:46:46.273Z,100.00
2023-04-30T20:49:14.693Z,100.00
2023-04-30T20:51:47.590Z,100.00
2023-04-30T20:54:23.111Z,100.00
2023-04-30T20:56:50.222Z,100.00
2023-04-30T20:59:17.332Z,100.00
2023-04-30T21:01:44.146Z,100.00
2023-04-30T21:04:11.487Z,100.00
2023-04-30T21:06:38.437Z,100.00
2023-04-30T21:09:06.413Z,100.00
2023-04-30T21:11:33.801Z,100.00
2023-04-30T21:14:00.647Z,100.00
2023-04-30T21:16:28.131Z,100.00
2023-04-30T21:18:55.175Z,100.00
2023-04-30T21:21:31.481Z,100.00
2023-04-30T21:24:01.115Z,99.75
2023-04-30T21:26:28.496Z,100.00
2023-04-30T21:28:55.945Z,100.00
2023-04-30T21:31:23.830Z,100.00
2023-04-30T21:33:50.790Z,100.00
2023-04-30T21:36:18.105Z,100.00
2023-04-30T21:38:45.009Z,100.00
2023-04-30T21:41:16.393Z,100.00
2023-04-30T21:43:43.777Z,100.00
2023-04-30T21:46:10.993Z,100.00
2023-04-30T21:48:41.025Z,100.00
2023-04-30T21:51:12.679Z,100.00
2023-04-30T21:53:39.680Z,100.00
2023-04-30T21:56:11.324Z,100.00
2023-04-30T21:58:39.031Z,100.00
2023-04-30T22:01:06.380Z,100.00
2023-04-30T22:03:34.147Z,100.00
2023-04-30T22:06:01.630Z,100.00
2023-04-30T22:08:28.764Z,100.00
2023-04-30T22:10:59.950Z,100.00
2023-04-30T22:13:28.040Z,100.00
2023-04-30T22:15:55.717Z,100.00
2023-04-30T22:18:24.724Z,100.00
2023-04-30T22:20:52.407Z,100.00
2023-04-30T22:23:23.025Z,100.00
2023-04-30T22:25:50.586Z,100.00
2023-04-30T22:28:19.257Z,100.00
2023-04-30T22:30:46.384Z,100.00
2023-04-30T22:33:13.270Z,100.00
2023-04-30T22:35:40.395Z,100.00
2023-04-30T22:38:07.808Z,100.00
2023-04-30T22:40:38.572Z,100.00
2023-04-30T22:43:06.268Z,100.00
2023-04-30T22:45:37.224Z,100.00
2023-04-30T22:48:04.855Z,100.00
2023-04-30T22:50:32.265Z,100.00
2023-04-30T22:52:59.631Z,100.00
2023-04-30T22:55:27.261Z,100.00
2023-04-30T22:57:54.156Z,100.00
2023-04-30T23:00:21.405Z,100.00
2023-04-30T23:02:48.790Z,100.00
2023-04-30T23:05:15.779Z,100.00
2023-04-30T23:07:42.676Z,100.00
2023-04-30T23:10:10.251Z,100.00
2023-04-30T23:12:37.115Z,100.00
2023-04-30T23:15:04.457Z,100.00
2023-04-30T23:17:31.322Z,100.00
2023-04-30T23:19:58.778Z,100.00
2023-04-30T23:22:25.785Z,100.00
2023-04-30T23:24:52.750Z,100.00
2023-04-30T23:27:19.600Z,100.00
2023-04-30T23:29:47.844Z,100.00
2023-04-30T23:32:14.731Z,100.00
2023-04-30T23:34:41.694Z,100.00
2023-04-30T23:37:08.944Z,100.00
2023-04-30T23:39:36.153Z,100.00
2023-04-30T23:42:02.952Z,100.00
2023-04-30T23:44:32.223Z,100.00
2023-04-30T23:47:00.939Z,100.00
2023-04-30T23:49:27.997Z,100.00
2023-04-30T23:51:54.952Z,100.00
2023-04-30T23:54:22.405Z,100.00
2023-04-30T23:56:49.758Z,100.00
2023-04-30T23:59:16.774Z,100.00
